sensor_id;sensor_type;location;lat;lon;timestamp;P1;durP1;ratioP1;P2;durP2;ratioP2
35715;SDS011;21840;44.920;8.616;2022-12-18T00:03:43;52.03;;;32.10;;
35715;SDS011;21840;44.920;8.616;2022-12-18T00:06:08;55.30;;;32.53;;
35715;SDS011;21840;44.920;8.616;2022-12-18T00:08:34;50.22;;;32.65;;
35715;SDS011;21840;44.920;8.616;2022-12-18T00:11:04;50.08;;;32.15;;
35715;SDS011;21840;44.920;8.616;2022-12-18T00:13:34;54.30;;;31.75;;
35715;SDS011;21840;44.920;8.616;2022-12-18T00:16:07;53.88;;;32.53;;
35715;SDS011;21840;44.920;8.616;2022-12-18T00:18:34;50.65;;;30.88;;
35715;SDS011;21840;44.920;8.616;2022-12-18T00:21:00;50.25;;;31.80;;
35715;SDS011;21840;44.920;8.616;2022-12-18T00:23:27;51.72;;;33.15;;
35715;SDS011;21840;44.920;8.616;2022-12-18T00:25:54;51.28;;;31.50;;
35715;SDS011;21840;44.920;8.616;2022-12-18T00:28:19;50.75;;;31.48;;
35715;SDS011;21840;44.920;8.616;2022-12-18T00:30:45;56.90;;;33.22;;
35715;SDS011;21840;44.920;8.616;2022-12-18T00:33:11;51.83;;;31.55;;
35715;SDS011;21840;44.920;8.616;2022-12-18T00:35:36;49.67;;;30.73;;
35715;SDS011;21840;44.920;8.616;2022-12-18T00:38:02;48.17;;;30.95;;
35715;SDS011;21840;44.920;8.616;2022-12-18T00:40:27;53.58;;;32.55;;
35715;SDS011;21840;44.920;8.616;2022-12-18T00:42:53;53.80;;;32.05;;
35715;SDS011;21840;44.920;8.616;2022-12-18T00:45:28;57.20;;;33.63;;
35715;SDS011;21840;44.920;8.616;2022-12-18T00:47:55;52.22;;;32.13;;
35715;SDS011;21840;44.920;8.616;2022-12-18T00:50:22;56.65;;;32.05;;
35715;SDS011;21840;44.920;8.616;2022-12-18T00:52:48;58.78;;;31.15;;
35715;SDS011;21840;44.920;8.616;2022-12-18T00:55:14;54.40;;;33.10;;
35715;SDS011;21840;44.920;8.616;2022-12-18T00:57:40;54.75;;;32.00;;
35715;SDS011;21840;44.920;8.616;2022-12-18T01:00:06;56.17;;;33.67;;
35715;SDS011;21840;44.920;8.616;2022-12-18T01:02:34;51.03;;;32.67;;
35715;SDS011;21840;44.920;8.616;2022-12-18T01:05:00;57.22;;;33.67;;
35715;SDS011;21840;44.920;8.616;2022-12-18T01:07:26;59.10;;;34.28;;
35715;SDS011;21840;44.920;8.616;2022-12-18T01:09:51;58.97;;;35.08;;
35715;SDS011;21840;44.920;8.616;2022-12-18T01:12:17;51.42;;;31.70;;
35715;SDS011;21840;44.920;8.616;2022-12-18T01:14:42;53.05;;;31.23;;
35715;SDS011;21840;44.920;8.616;2022-12-18T01:17:08;50.42;;;31.65;;
35715;SDS011;21840;44.920;8.616;2022-12-18T01:19:33;54.42;;;30.90;;
35715;SDS011;21840;44.920;8.616;2022-12-18T01:21:59;53.85;;;32.17;;
35715;SDS011;21840;44.920;8.616;2022-12-18T01:24:25;52.10;;;32.17;;
35715;SDS011;21840;44.920;8.616;2022-12-18T01:26:50;56.55;;;33.05;;
35715;SDS011;21840;44.920;8.616;2022-12-18T01:29:16;59.53;;;34.42;;
35715;SDS011;21840;44.920;8.616;2022-12-18T01:31:41;55.05;;;33.58;;
35715;SDS011;21840;44.920;8.616;2022-12-18T01:34:07;55.90;;;33.35;;
35715;SDS011;21840;44.920;8.616;2022-12-18T01:36:35;54.40;;;32.60;;
35715;SDS011;21840;44.920;8.616;2022-12-18T01:39:04;60.25;;;33.65;;
35715;SDS011;21840;44.920;8.616;2022-12-18T01:41:31;59.22;;;33.25;;
35715;SDS011;21840;44.920;8.616;2022-12-18T01:50:11;65.75;;;34.50;;
35715;SDS011;21840;44.920;8.616;2022-12-18T01:52:44;57.42;;;33.20;;
35715;SDS011;21840;44.920;8.616;2022-12-18T01:55:13;56.30;;;32.50;;
35715;SDS011;21840;44.920;8.616;2022-12-18T01:57:41;52.45;;;31.67;;
35715;SDS011;21840;44.920;8.616;2022-12-18T02:00:09;57.97;;;32.85;;
35715;SDS011;21840;44.920;8.616;2022-12-18T02:02:43;55.50;;;33.10;;
35715;SDS011;21840;44.920;8.616;2022-12-18T02:05:12;58.88;;;32.97;;
35715;SDS011;21840;44.920;8.616;2022-12-18T02:10:44;54.35;;;32.50;;
35715;SDS011;21840;44.920;8.616;2022-12-18T02:13:18;54.67;;;32.88;;
35715;SDS011;21840;44.920;8.616;2022-12-18T02:18:56;52.47;;;31.35;;
35715;SDS011;21840;44.920;8.616;2022-12-18T02:21:37;51.55;;;32.03;;
35715;SDS011;21840;44.920;8.616;2022-12-18T02:24:42;58.80;;;32.67;;
35715;SDS011;21840;44.920;8.616;2022-12-18T02:27:10;53.65;;;30.50;;
35715;SDS011;21840;44.920;8.616;2022-12-18T02:29:48;60.03;;;32.40;;
35715;SDS011;21840;44.920;8.616;2022-12-18T02:32:22;60.88;;;33.42;;
35715;SDS011;21840;44.920;8.616;2022-12-18T02:34:54;56.63;;;31.50;;
35715;SDS011;21840;44.920;8.616;2022-12-18T02:37:25;53.67;;;31.17;;
35715;SDS011;21840;44.920;8.616;2022-12-18T02:39:54;54.60;;;31.52;;
35715;SDS011;21840;44.920;8.616;2022-12-18T02:42:22;60.35;;;32.63;;
35715;SDS011;21840;44.920;8.616;2022-12-18T02:44:50;61.75;;;33.20;;
35715;SDS011;21840;44.920;8.616;2022-12-18T02:47:22;59.05;;;31.98;;
35715;SDS011;21840;44.920;8.616;2022-12-18T02:52:43;61.97;;;33.28;;
35715;SDS011;21840;44.920;8.616;2022-12-18T02:58:16;58.92;;;32.00;;
35715;SDS011;21840;44.920;8.616;2022-12-18T03:00:59;58.95;;;31.85;;
35715;SDS011;21840;44.920;8.616;2022-12-18T03:03:34;59.47;;;31.55;;
35715;SDS011;21840;44.920;8.616;2022-12-18T03:06:08;58.40;;;32.55;;
35715;SDS011;21840;44.920;8.616;2022-12-18T03:08:46;61.08;;;32.00;;
35715;SDS011;21840;44.920;8.616;2022-12-18T03:11:15;56.47;;;30.40;;
35715;SDS011;21840;44.920;8.616;2022-12-18T03:14:01;57.17;;;30.95;;
35715;SDS011;21840;44.920;8.616;2022-12-18T03:16:31;69.43;;;34.47;;
35715;SDS011;21840;44.920;8.616;2022-12-18T03:19:01;56.97;;;32.10;;
35715;SDS011;21840;44.920;8.616;2022-12-18T03:21:42;59.38;;;32.78;;
35715;SDS011;21840;44.920;8.616;2022-12-18T03:24:12;58.90;;;31.80;;
35715;SDS011;21840;44.920;8.616;2022-12-18T03:26:42;60.60;;;31.83;;
35715;SDS011;21840;44.920;8.616;2022-12-18T03:29:15;58.13;;;32.50;;
35715;SDS011;21840;44.920;8.616;2022-12-18T03:31:51;61.50;;;34.40;;
35715;SDS011;21840;44.920;8.616;2022-12-18T03:34:25;59.45;;;30.88;;
35715;SDS011;21840;44.920;8.616;2022-12-18T03:36:55;59.00;;;31.35;;
35715;SDS011;21840;44.920;8.616;2022-12-18T03:39:22;54.55;;;29.92;;
35715;SDS011;21840;44.920;8.616;2022-12-18T03:47:43;59.65;;;33.08;;
35715;SDS011;21840;44.920;8.616;2022-12-18T03:50:13;59.65;;;31.92;;
35715;SDS011;21840;44.920;8.616;2022-12-18T03:52:51;65.63;;;31.15;;
35715;SDS011;21840;44.920;8.616;2022-12-18T03:55:24;62.28;;;32.00;;
35715;SDS011;21840;44.920;8.616;2022-12-18T03:57:58;60.35;;;31.08;;
35715;SDS011;21840;44.920;8.616;2022-12-18T04:00:34;60.53;;;31.20;;
35715;SDS011;21840;44.920;8.616;2022-12-18T04:03:06;63.72;;;33.03;;
35715;SDS011;21840;44.920;8.616;2022-12-18T04:05:40;67.43;;;32.28;;
35715;SDS011;21840;44.920;8.616;2022-12-18T04:08:08;63.75;;;32.38;;
35715;SDS011;21840;44.920;8.616;2022-12-18T04:10:37;60.75;;;32.42;;
35715;SDS011;21840;44.920;8.616;2022-12-18T04:13:03;61.67;;;32.80;;
35715;SDS011;21840;44.920;8.616;2022-12-18T04:15:29;61.38;;;32.45;;
35715;SDS011;21840;44.920;8.616;2022-12-18T04:17:56;65.45;;;32.63;;
35715;SDS011;21840;44.920;8.616;2022-12-18T04:20:26;66.18;;;32.70;;
35715;SDS011;21840;44.920;8.616;2022-12-18T04:22:52;67.93;;;33.05;;
35715;SDS011;21840;44.920;8.616;2022-12-18T04:25:19;63.83;;;33.00;;
35715;SDS011;21840;44.920;8.616;2022-12-18T04:28:04;66.65;;;33.15;;
35715;SDS011;21840;44.920;8.616;2022-12-18T04:30:30;62.50;;;32.10;;
35715;SDS011;21840;44.920;8.616;2022-12-18T04:32:56;62.03;;;31.02;;
35715;SDS011;21840;44.920;8.616;2022-12-18T04:35:21;62.97;;;31.13;;
35715;SDS011;21840;44.920;8.616;2022-12-18T04:37:47;67.60;;;33.40;;
35715;SDS011;21840;44.920;8.616;2022-12-18T04:40:14;71.55;;;32.80;;
35715;SDS011;21840;44.920;8.616;2022-12-18T04:42:42;75.95;;;34.38;;
35715;SDS011;21840;44.920;8.616;2022-12-18T04:45:08;71.43;;;33.08;;
35715;SDS011;21840;44.920;8.616;2022-12-18T04:47:34;70.53;;;33.58;;
35715;SDS011;21840;44.920;8.616;2022-12-18T04:50:01;68.13;;;32.60;;
35715;SDS011;21840;44.920;8.616;2022-12-18T04:52:26;74.63;;;34.65;;
35715;SDS011;21840;44.920;8.616;2022-12-18T04:54:52;69.90;;;34.63;;
35715;SDS011;21840;44.920;8.616;2022-12-18T04:57:17;76.45;;;34.83;;
35715;SDS011;21840;44.920;8.616;2022-12-18T04:59:43;68.82;;;32.88;;
35715;SDS011;21840;44.920;8.616;2022-12-18T05:02:12;68.88;;;33.40;;
35715;SDS011;21840;44.920;8.616;2022-12-18T05:04:37;76.35;;;33.80;;
35715;SDS011;21840;44.920;8.616;2022-12-18T05:07:03;72.22;;;34.78;;
35715;SDS011;21840;44.920;8.616;2022-12-18T05:09:29;68.95;;;32.83;;
35715;SDS011;21840;44.920;8.616;2022-12-18T05:11:54;71.88;;;32.75;;
35715;SDS011;21840;44.920;8.616;2022-12-18T05:14:20;77.50;;;33.50;;
35715;SDS011;21840;44.920;8.616;2022-12-18T05:16:45;75.40;;;33.75;;
35715;SDS011;21840;44.920;8.616;2022-12-18T05:19:11;78.00;;;32.85;;
35715;SDS011;21840;44.920;8.616;2022-12-18T05:21:36;79.55;;;32.75;;
35715;SDS011;21840;44.920;8.616;2022-12-18T05:24:02;77.35;;;33.83;;
35715;SDS011;21840;44.920;8.616;2022-12-18T05:26:27;77.22;;;34.53;;
35715;SDS011;21840;44.920;8.616;2022-12-18T05:28:53;75.50;;;32.88;;
35715;SDS011;21840;44.920;8.616;2022-12-18T05:31:24;80.47;;;31.63;;
35715;SDS011;21840;44.920;8.616;2022-12-18T05:33:49;77.65;;;33.42;;
35715;SDS011;21840;44.920;8.616;2022-12-18T05:36:15;74.72;;;33.50;;
35715;SDS011;21840;44.920;8.616;2022-12-18T05:38:40;72.78;;;32.20;;
35715;SDS011;21840;44.920;8.616;2022-12-18T05:41:06;70.50;;;34.17;;
35715;SDS011;21840;44.920;8.616;2022-12-18T05:43:34;77.88;;;33.13;;
35715;SDS011;21840;44.920;8.616;2022-12-18T05:46:04;87.07;;;36.60;;
35715;SDS011;21840;44.920;8.616;2022-12-18T05:48:36;83.47;;;34.35;;
35715;SDS011;21840;44.920;8.616;2022-12-18T05:51:05;87.93;;;35.25;;
35715;SDS011;21840;44.920;8.616;2022-12-18T05:53:39;76.25;;;35.45;;
35715;SDS011;21840;44.920;8.616;2022-12-18T05:56:05;82.97;;;36.80;;
35715;SDS011;21840;44.920;8.616;2022-12-18T05:58:33;93.05;;;36.45;;
35715;SDS011;21840;44.920;8.616;2022-12-18T06:01:10;83.75;;;35.25;;
35715;SDS011;21840;44.920;8.616;2022-12-18T06:03:37;92.03;;;35.20;;
35715;SDS011;21840;44.920;8.616;2022-12-18T06:06:03;86.68;;;34.45;;
35715;SDS011;21840;44.920;8.616;2022-12-18T06:08:29;91.70;;;35.65;;
35715;SDS011;21840;44.920;8.616;2022-12-18T06:10:54;89.43;;;35.40;;
35715;SDS011;21840;44.920;8.616;2022-12-18T06:13:20;89.10;;;36.10;;
35715;SDS011;21840;44.920;8.616;2022-12-18T06:15:48;81.00;;;34.55;;
35715;SDS011;21840;44.920;8.616;2022-12-18T06:18:14;88.55;;;33.00;;
35715;SDS011;21840;44.920;8.616;2022-12-18T06:20:39;84.00;;;34.33;;
35715;SDS011;21840;44.920;8.616;2022-12-18T06:23:06;79.80;;;32.85;;
35715;SDS011;21840;44.920;8.616;2022-12-18T06:25:32;85.47;;;34.63;;
35715;SDS011;21840;44.920;8.616;2022-12-18T06:27:58;86.25;;;33.75;;
35715;SDS011;21840;44.920;8.616;2022-12-18T06:30:23;87.05;;;34.17;;
35715;SDS011;21840;44.920;8.616;2022-12-18T06:32:49;88.50;;;33.88;;
35715;SDS011;21840;44.920;8.616;2022-12-18T06:35:15;84.03;;;32.78;;
35715;SDS011;21840;44.920;8.616;2022-12-18T06:37:41;83.20;;;34.65;;
35715;SDS011;21840;44.920;8.616;2022-12-18T06:40:06;88.40;;;34.58;;
35715;SDS011;21840;44.920;8.616;2022-12-18T06:42:32;92.65;;;36.22;;
35715;SDS011;21840;44.920;8.616;2022-12-18T06:44:58;89.25;;;34.15;;
35715;SDS011;21840;44.920;8.616;2022-12-18T06:47:23;108.30;;;37.88;;
35715;SDS011;21840;44.920;8.616;2022-12-18T06:49:49;88.10;;;37.40;;
35715;SDS011;21840;44.920;8.616;2022-12-18T06:52:17;100.57;;;36.40;;
35715;SDS011;21840;44.920;8.616;2022-12-18T06:54:43;99.65;;;37.65;;
35715;SDS011;21840;44.920;8.616;2022-12-18T06:57:08;106.78;;;39.72;;
35715;SDS011;21840;44.920;8.616;2022-12-18T06:59:34;94.50;;;36.28;;
35715;SDS011;21840;44.920;8.616;2022-12-18T07:01:59;95.18;;;37.85;;
35715;SDS011;21840;44.920;8.616;2022-12-18T07:04:28;100.32;;;37.17;;
35715;SDS011;21840;44.920;8.616;2022-12-18T07:06:54;109.10;;;37.10;;
35715;SDS011;21840;44.920;8.616;2022-12-18T07:09:20;96.07;;;38.00;;
35715;SDS011;21840;44.920;8.616;2022-12-18T07:11:46;98.05;;;37.45;;
35715;SDS011;21840;44.920;8.616;2022-12-18T07:14:11;100.45;;;37.42;;
35715;SDS011;21840;44.920;8.616;2022-12-18T07:16:36;91.80;;;35.25;;
35715;SDS011;21840;44.920;8.616;2022-12-18T07:19:02;93.18;;;37.05;;
35715;SDS011;21840;44.920;8.616;2022-12-18T07:21:27;95.90;;;35.90;;
35715;SDS011;21840;44.920;8.616;2022-12-18T07:23:53;91.60;;;36.28;;
35715;SDS011;21840;44.920;8.616;2022-12-18T07:26:19;96.97;;;36.55;;
35715;SDS011;21840;44.920;8.616;2022-12-18T07:28:46;85.05;;;35.33;;
35715;SDS011;21840;44.920;8.616;2022-12-18T07:31:14;97.13;;;37.88;;
35715;SDS011;21840;44.920;8.616;2022-12-18T07:33:41;94.50;;;35.50;;
35715;SDS011;21840;44.920;8.616;2022-12-18T07:36:07;92.88;;;36.80;;
35715;SDS011;21840;44.920;8.616;2022-12-18T07:38:35;93.57;;;35.83;;
35715;SDS011;21840;44.920;8.616;2022-12-18T07:41:07;95.97;;;36.55;;
35715;SDS011;21840;44.920;8.616;2022-12-18T07:43:34;104.28;;;38.53;;
35715;SDS011;21840;44.920;8.616;2022-12-18T07:46:01;94.03;;;37.22;;
35715;SDS011;21840;44.920;8.616;2022-12-18T07:48:29;100.15;;;36.10;;
35715;SDS011;21840;44.920;8.616;2022-12-18T07:50:59;89.07;;;37.10;;
35715;SDS011;21840;44.920;8.616;2022-12-18T07:53:25;95.38;;;37.05;;
35715;SDS011;21840;44.920;8.616;2022-12-18T07:55:58;97.22;;;38.08;;
35715;SDS011;21840;44.920;8.616;2022-12-18T07:58:24;97.55;;;36.85;;
35715;SDS011;21840;44.920;8.616;2022-12-18T08:00:50;94.07;;;36.47;;
35715;SDS011;21840;44.920;8.616;2022-12-18T08:03:17;87.72;;;36.67;;
35715;SDS011;21840;44.920;8.616;2022-12-18T08:05:43;83.82;;;35.40;;
35715;SDS011;21840;44.920;8.616;2022-12-18T08:08:09;97.30;;;36.90;;
35715;SDS011;21840;44.920;8.616;2022-12-18T08:10:35;84.93;;;36.42;;
35715;SDS011;21840;44.920;8.616;2022-12-18T08:13:00;94.50;;;37.45;;
35715;SDS011;21840;44.920;8.616;2022-12-18T08:15:26;100.82;;;38.70;;
35715;SDS011;21840;44.920;8.616;2022-12-18T08:17:51;87.70;;;35.17;;
35715;SDS011;21840;44.920;8.616;2022-12-18T08:20:17;93.00;;;36.63;;
35715;SDS011;21840;44.920;8.616;2022-12-18T08:22:43;81.82;;;34.88;;
35715;SDS011;21840;44.920;8.616;2022-12-18T08:25:10;83.28;;;36.35;;
35715;SDS011;21840;44.920;8.616;2022-12-18T08:27:35;90.60;;;35.08;;
35715;SDS011;21840;44.920;8.616;2022-12-18T08:30:01;84.45;;;36.72;;
35715;SDS011;21840;44.920;8.616;2022-12-18T08:32:31;87.55;;;36.05;;
35715;SDS011;21840;44.920;8.616;2022-12-18T08:34:58;91.10;;;37.17;;
35715;SDS011;21840;44.920;8.616;2022-12-18T08:37:23;91.97;;;36.20;;
35715;SDS011;21840;44.920;8.616;2022-12-18T08:39:49;83.15;;;36.08;;
35715;SDS011;21840;44.920;8.616;2022-12-18T08:42:14;78.22;;;33.97;;
35715;SDS011;21840;44.920;8.616;2022-12-18T08:44:58;82.30;;;35.17;;
35715;SDS011;21840;44.920;8.616;2022-12-18T08:47:23;90.00;;;35.97;;
35715;SDS011;21840;44.920;8.616;2022-12-18T08:49:51;83.32;;;33.78;;
35715;SDS011;21840;44.920;8.616;2022-12-18T08:52:16;78.88;;;34.65;;
35715;SDS011;21840;44.920;8.616;2022-12-18T08:54:42;84.35;;;34.10;;
35715;SDS011;21840;44.920;8.616;2022-12-18T08:57:07;77.63;;;33.65;;
35715;SDS011;21840;44.920;8.616;2022-12-18T08:59:33;92.53;;;36.83;;
35715;SDS011;21840;44.920;8.616;2022-12-18T09:01:58;86.90;;;34.65;;
35715;SDS011;21840;44.920;8.616;2022-12-18T09:04:24;80.93;;;33.53;;
35715;SDS011;21840;44.920;8.616;2022-12-18T09:06:49;82.00;;;34.28;;
35715;SDS011;21840;44.920;8.616;2022-12-18T09:09:18;79.43;;;33.03;;
35715;SDS011;21840;44.920;8.616;2022-12-18T09:11:43;76.38;;;34.53;;
35715;SDS011;21840;44.920;8.616;2022-12-18T09:14:09;88.88;;;35.53;;
35715;SDS011;21840;44.920;8.616;2022-12-18T09:16:35;82.90;;;34.08;;
35715;SDS011;21840;44.920;8.616;2022-12-18T09:19:01;86.70;;;34.92;;
35715;SDS011;21840;44.920;8.616;2022-12-18T09:21:29;74.55;;;35.38;;
35715;SDS011;21840;44.920;8.616;2022-12-18T09:23:57;74.63;;;33.40;;
35715;SDS011;21840;44.920;8.616;2022-12-18T09:26:24;81.18;;;33.17;;
35715;SDS011;21840;44.920;8.616;2022-12-18T09:28:50;79.97;;;35.15;;
35715;SDS011;21840;44.920;8.616;2022-12-18T09:31:17;80.57;;;36.08;;
35715;SDS011;21840;44.920;8.616;2022-12-18T09:33:44;80.65;;;35.17;;
35715;SDS011;21840;44.920;8.616;2022-12-18T09:36:13;76.50;;;35.28;;
35715;SDS011;21840;44.920;8.616;2022-12-18T09:38:40;78.55;;;36.45;;
35715;SDS011;21840;44.920;8.616;2022-12-18T09:43:51;79.93;;;36.72;;
35715;SDS011;21840;44.920;8.616;2022-12-18T09:46:28;81.03;;;35.92;;
35715;SDS011;21840;44.920;8.616;2022-12-18T09:49:02;78.88;;;35.08;;
35715;SDS011;21840;44.920;8.616;2022-12-18T09:51:57;75.47;;;34.33;;
35715;SDS011;21840;44.920;8.616;2022-12-18T09:55:14;89.05;;;36.85;;
35715;SDS011;21840;44.920;8.616;2022-12-18T09:57:26;87.03;;;37.05;;
35715;SDS011;21840;44.920;8.616;2022-12-18T09:59:56;74.93;;;35.28;;
35715;SDS011;21840;44.920;8.616;2022-12-18T10:02:36;84.00;;;37.78;;
35715;SDS011;21840;44.920;8.616;2022-12-18T10:05:06;92.45;;;37.83;;
35715;SDS011;21840;44.920;8.616;2022-12-18T10:10:53;82.45;;;36.63;;
35715;SDS011;21840;44.920;8.616;2022-12-18T10:16:00;84.05;;;35.60;;
35715;SDS011;21840;44.920;8.616;2022-12-18T10:18:47;74.95;;;35.17;;
35715;SDS011;21840;44.920;8.616;2022-12-18T10:21:37;76.72;;;36.90;;
35715;SDS011;21840;44.920;8.616;2022-12-18T10:26:55;74.22;;;34.58;;
35715;SDS011;21840;44.920;8.616;2022-12-18T10:29:34;76.95;;;34.45;;
35715;SDS011;21840;44.920;8.616;2022-12-18T10:32:00;72.43;;;35.08;;
35715;SDS011;21840;44.920;8.616;2022-12-18T10:34:25;74.65;;;35.80;;
35715;SDS011;21840;44.920;8.616;2022-12-18T10:36:51;68.28;;;35.08;;
35715;SDS011;21840;44.920;8.616;2022-12-18T10:41:50;78.30;;;38.10;;
35715;SDS011;21840;44.920;8.616;2022-12-18T10:44:20;72.60;;;36.28;;
35715;SDS011;21840;44.920;8.616;2022-12-18T10:46:48;70.97;;;36.03;;
35715;SDS011;21840;44.920;8.616;2022-12-18T10:49:49;68.07;;;35.72;;
35715;SDS011;21840;44.920;8.616;2022-12-18T10:52:23;71.70;;;35.92;;
35715;SDS011;21840;44.920;8.616;2022-12-18T10:55:01;67.63;;;35.78;;
35715;SDS011;21840;44.920;8.616;2022-12-18T10:57:30;76.20;;;37.00;;
35715;SDS011;21840;44.920;8.616;2022-12-18T11:02:48;71.00;;;34.95;;
35715;SDS011;21840;44.920;8.616;2022-12-18T11:07:52;72.60;;;36.13;;
35715;SDS011;21840;44.920;8.616;2022-12-18T11:10:25;74.13;;;36.83;;
35715;SDS011;21840;44.920;8.616;2022-12-18T11:13:11;68.85;;;35.92;;
35715;SDS011;21840;44.920;8.616;2022-12-18T11:15:42;67.82;;;35.97;;
35715;SDS011;21840;44.920;8.616;2022-12-18T11:18:15;64.07;;;35.63;;
35715;SDS011;21840;44.920;8.616;2022-12-18T11:20:43;69.13;;;36.50;;
35715;SDS011;21840;44.920;8.616;2022-12-18T11:23:16;73.68;;;36.85;;
35715;SDS011;21840;44.920;8.616;2022-12-18T11:25:52;71.25;;;34.90;;
35715;SDS011;21840;44.920;8.616;2022-12-18T11:28:37;75.68;;;37.53;;
35715;SDS011;21840;44.920;8.616;2022-12-18T11:36:42;70.03;;;35.78;;
35715;SDS011;21840;44.920;8.616;2022-12-18T11:39:12;78.97;;;37.22;;
35715;SDS011;21840;44.920;8.616;2022-12-18T11:41:49;68.07;;;35.45;;
35715;SDS011;21840;44.920;8.616;2022-12-18T11:44:42;67.45;;;34.00;;
35715;SDS011;21840;44.920;8.616;2022-12-18T11:47:19;67.28;;;34.88;;
35715;SDS011;21840;44.920;8.616;2022-12-18T11:49:46;71.97;;;35.40;;
35715;SDS011;21840;44.920;8.616;2022-12-18T11:52:27;70.95;;;33.58;;
35715;SDS011;21840;44.920;8.616;2022-12-18T11:55:00;63.95;;;34.33;;
35715;SDS011;21840;44.920;8.616;2022-12-18T11:57:42;69.50;;;35.45;;
35715;SDS011;21840;44.920;8.616;2022-12-18T12:00:16;68.82;;;35.05;;
35715;SDS011;21840;44.920;8.616;2022-12-18T12:11:28;67.65;;;35.03;;
35715;SDS011;21840;44.920;8.616;2022-12-18T12:16:33;63.63;;;33.90;;
35715;SDS011;21840;44.920;8.616;2022-12-18T12:19:06;62.00;;;33.58;;
35715;SDS011;21840;44.920;8.616;2022-12-18T12:21:48;67.43;;;33.42;;
35715;SDS011;21840;44.920;8.616;2022-12-18T12:30:20;65.93;;;34.67;;
35715;SDS011;21840;44.920;8.616;2022-12-18T12:32:53;64.50;;;33.33;;
35715;SDS011;21840;44.920;8.616;2022-12-18T12:38:11;64.30;;;34.03;;
35715;SDS011;21840;44.920;8.616;2022-12-18T12:40:47;59.53;;;34.10;;
35715;SDS011;21840;44.920;8.616;2022-12-18T12:43:34;63.97;;;34.22;;
35715;SDS011;21840;44.920;8.616;2022-12-18T12:46:20;57.72;;;32.55;;
35715;SDS011;21840;44.920;8.616;2022-12-18T12:51:21;62.88;;;34.00;;
35715;SDS011;21840;44.920;8.616;2022-12-18T12:53:50;65.53;;;34.53;;
35715;SDS011;21840;44.920;8.616;2022-12-18T12:56:17;63.47;;;33.05;;
35715;SDS011;21840;44.920;8.616;2022-12-18T13:01:52;64.47;;;34.30;;
35715;SDS011;21840;44.920;8.616;2022-12-18T13:04:29;66.47;;;33.90;;
35715;SDS011;21840;44.920;8.616;2022-12-18T13:17:48;66.93;;;35.03;;
35715;SDS011;21840;44.920;8.616;2022-12-18T13:20:14;65.50;;;35.17;;
35715;SDS011;21840;44.920;8.616;2022-12-18T13:22:44;64.28;;;33.47;;
35715;SDS011;21840;44.920;8.616;2022-12-18T13:25:28;63.22;;;34.00;;
35715;SDS011;21840;44.920;8.616;2022-12-18T13:30:59;61.15;;;34.25;;
35715;SDS011;21840;44.920;8.616;2022-12-18T13:38:34;58.63;;;33.13;;
35715;SDS011;21840;44.920;8.616;2022-12-18T13:41:04;61.15;;;34.25;;
35715;SDS011;21840;44.920;8.616;2022-12-18T13:43:58;65.18;;;33.90;;
35715;SDS011;21840;44.920;8.616;2022-12-18T13:46:44;69.30;;;36.42;;
35715;SDS011;21840;44.920;8.616;2022-12-18T13:51:43;65.30;;;36.47;;
35715;SDS011;21840;44.920;8.616;2022-12-18T13:54:25;66.50;;;37.20;;
35715;SDS011;21840;44.920;8.616;2022-12-18T13:56:59;61.97;;;35.60;;
35715;SDS011;21840;44.920;8.616;2022-12-18T13:59:26;64.80;;;35.72;;
35715;SDS011;21840;44.920;8.616;2022-12-18T14:02:14;74.40;;;36.03;;
35715;SDS011;21840;44.920;8.616;2022-12-18T14:04:44;66.80;;;36.47;;
35715;SDS011;21840;44.920;8.616;2022-12-18T14:07:12;64.65;;;35.08;;
35715;SDS011;21840;44.920;8.616;2022-12-18T14:09:45;68.72;;;36.92;;
35715;SDS011;21840;44.920;8.616;2022-12-18T14:12:33;67.55;;;36.00;;
35715;SDS011;21840;44.920;8.616;2022-12-18T14:17:47;66.35;;;36.20;;
35715;SDS011;21840;44.920;8.616;2022-12-18T14:20:15;62.22;;;33.92;;
35715;SDS011;21840;44.920;8.616;2022-12-18T14:22:43;60.88;;;33.03;;
35715;SDS011;21840;44.920;8.616;2022-12-18T14:25:18;64.00;;;35.20;;
35715;SDS011;21840;44.920;8.616;2022-12-18T14:27:45;60.30;;;34.10;;
35715;SDS011;21840;44.920;8.616;2022-12-18T14:30:29;65.65;;;35.45;;
35715;SDS011;21840;44.920;8.616;2022-12-18T14:33:00;65.10;;;35.05;;
35715;SDS011;21840;44.920;8.616;2022-12-18T14:35:35;65.90;;;34.42;;
35715;SDS011;21840;44.920;8.616;2022-12-18T14:40:58;62.33;;;34.45;;
35715;SDS011;21840;44.920;8.616;2022-12-18T14:43:25;67.65;;;35.33;;
35715;SDS011;21840;44.920;8.616;2022-12-18T14:45:52;63.53;;;34.55;;
35715;SDS011;21840;44.920;8.616;2022-12-18T14:53:42;65.63;;;34.10;;
35715;SDS011;21840;44.920;8.616;2022-12-18T14:56:16;69.28;;;35.70;;
35715;SDS011;21840;44.920;8.616;2022-12-18T14:58:48;69.07;;;36.03;;
35715;SDS011;21840;44.920;8.616;2022-12-18T15:01:20;65.15;;;34.28;;
35715;SDS011;21840;44.920;8.616;2022-12-18T15:03:49;67.05;;;35.50;;
35715;SDS011;21840;44.920;8.616;2022-12-18T15:06:24;70.43;;;35.33;;
35715;SDS011;21840;44.920;8.616;2022-12-18T15:08:57;70.38;;;36.10;;
35715;SDS011;21840;44.920;8.616;2022-12-18T15:13:50;73.38;;;36.60;;
35715;SDS011;21840;44.920;8.616;2022-12-18T15:16:16;71.85;;;36.72;;
35715;SDS011;21840;44.920;8.616;2022-12-18T15:18:42;71.57;;;35.25;;
35715;SDS011;21840;44.920;8.616;2022-12-18T15:21:10;68.07;;;36.53;;
35715;SDS011;21840;44.920;8.616;2022-12-18T15:26:10;67.28;;;36.85;;
35715;SDS011;21840;44.920;8.616;2022-12-18T15:28:45;72.20;;;36.88;;
35715;SDS011;21840;44.920;8.616;2022-12-18T15:33:38;69.10;;;38.20;;
35715;SDS011;21840;44.920;8.616;2022-12-18T15:36:09;68.55;;;38.00;;
35715;SDS011;21840;44.920;8.616;2022-12-18T15:38:35;68.95;;;36.60;;
35715;SDS011;21840;44.920;8.616;2022-12-18T15:41:01;75.50;;;38.30;;
35715;SDS011;21840;44.920;8.616;2022-12-18T15:43:27;74.25;;;38.70;;
35715;SDS011;21840;44.920;8.616;2022-12-18T15:46:03;72.82;;;38.35;;
35715;SDS011;21840;44.920;8.616;2022-12-18T15:48:32;70.97;;;38.45;;
35715;SDS011;21840;44.920;8.616;2022-12-18T15:50:59;69.25;;;38.65;;
35715;SDS011;21840;44.920;8.616;2022-12-18T15:53:25;74.05;;;39.20;;
35715;SDS011;21840;44.920;8.616;2022-12-18T15:55:55;92.07;;;48.47;;
35715;SDS011;21840;44.920;8.616;2022-12-18T15:58:39;90.50;;;44.67;;
35715;SDS011;21840;44.920;8.616;2022-12-18T16:01:05;91.13;;;47.63;;
35715;SDS011;21840;44.920;8.616;2022-12-18T16:03:32;85.68;;;43.38;;
35715;SDS011;21840;44.920;8.616;2022-12-18T16:05:58;83.57;;;43.60;;
35715;SDS011;21840;44.920;8.616;2022-12-18T16:08:25;79.72;;;42.35;;
35715;SDS011;21840;44.920;8.616;2022-12-18T16:10:54;82.22;;;41.53;;
35715;SDS011;21840;44.920;8.616;2022-12-18T16:13:19;83.38;;;43.03;;
35715;SDS011;21840;44.920;8.616;2022-12-18T16:15:45;77.10;;;41.40;;
35715;SDS011;21840;44.920;8.616;2022-12-18T16:18:11;80.45;;;41.83;;
35715;SDS011;21840;44.920;8.616;2022-12-18T16:20:36;86.00;;;42.13;;
35715;SDS011;21840;44.920;8.616;2022-12-18T16:23:03;77.30;;;38.90;;
35715;SDS011;21840;44.920;8.616;2022-12-18T16:25:29;74.25;;;39.35;;
35715;SDS011;21840;44.920;8.616;2022-12-18T16:27:55;82.22;;;42.05;;
35715;SDS011;21840;44.920;8.616;2022-12-18T16:30:26;99.95;;;52.65;;
35715;SDS011;21840;44.920;8.616;2022-12-18T16:32:54;95.57;;;50.22;;